Time;durP1;ratioP1;P1;durP2;ratioP2;P2;SDS_P1;SDS_P2;PMS_P1;PMS_P2;Temp;Humidity;BMP_temperature;BMP_pressure;BME280_temperature;BME280_humidity;BME280_pressure;Samples;Min_cycle;Max_cycle;Signal;HPM_P1;HPM_P2
2021/09/13 00:02:14;;;;;;;3.13;2.47;;;;;;;12.97;100.00;99162.50;5036744;28;20049;-80
2021/09/13 00:04:43;;;;;;;3.13;2.67;;;;;;;13.01;100.00;99182.06;5035516;28;20473;-80
2021/09/13 00:07:10;;;;;;;6.97;3.22;;;;;;;12.80;100.00;99150.25;5034743;28;20507;-80
2021/09/13 00:09:40;;;;;;;5.03;2.50;;;;;;;13.02;100.00;99175.53;5038916;28;20413;-80
2021/09/13 00:12:08;;;;;;;4.45;3.03;;;;;;;13.01;100.00;99157.50;5041278;28;20044;-80
2021/09/13 00:14:40;;;;;;;4.65;2.88;;;;;;;13.01;100.00;99160.25;5037395;28;20132;-79
2021/09/13 00:17:07;;;;;;;3.65;2.88;;;;;;;12.90;100.00;99147.97;5038852;28;20132;-79
2021/09/13 00:19:37;;;;;;;4.70;2.80;;;;;;;12.93;100.00;99153.03;5033681;28;20475;-79
2021/09/13 00:22:07;;;;;;;4.07;2.85;;;;;;;12.91;100.00;99175.06;5044120;28;20056;-80
2021/09/13 00:24:34;;;;;;;3.17;2.53;;;;;;;12.99;100.00;99163.16;5032341;28;20103;-80
2021/09/13 00:27:01;;;;;;;3.28;2.90;;;;;;;12.93;100.00;99142.13;5040488;28;20538;-80
2021/09/13 00:29:28;;;;;;;4.50;3.33;;;;;;;13.03;100.00;99152.69;5053107;28;20049;-80
2021/09/13 00:31:55;;;;;;;5.38;2.90;;;;;;;13.02;100.00;99149.13;5052864;28;20471;-80
2021/09/13 00:34:22;;;;;;;5.50;2.80;;;;;;;12.97;100.00;99150.75;5052967;28;20395;-80
2021/09/13 00:36:54;;;;;;;8.35;2.72;;;;;;;12.97;100.00;99148.03;5052265;28;20059;-80
2021/09/13 00:39:26;;;;;;;7.57;2.92;;;;;;;12.84;100.00;99133.28;5053177;28;20558;-79
2021/09/13 00:41:53;;;;;;;5.60;2.53;;;;;;;12.89;100.00;99138.94;5047613;28;20040;-79
2021/09/13 00:44:21;;;;;;;3.10;2.80;;;;;;;12.95;100.00;99141.91;5040902;28;20446;-80
2021/09/13 00:46:50;;;;;;;4.55;2.92;;;;;;;12.99;100.00;99138.59;5032817;28;20050;-80
2021/09/13 00:49:17;;;;;;;5.55;3.28;;;;;;;13.12;100.00;99158.81;5052318;28;20443;-80
2021/09/13 00:51:44;;;;;;;7.88;4.30;;;;;;;13.00;100.00;99144.91;5052770;28;20057;-80
2021/09/13 00:54:12;;;;;;;4.82;2.42;;;;;;;13.04;100.00;99147.03;5035656;28;20056;-80
2021/09/13 00:56:42;;;;;;;4.65;2.80;;;;;;;12.98;100.00;99144.25;5032590;28;20060;-80
2021/09/13 00:59:10;;;;;;;4.97;2.85;;;;;;;13.10;100.00;99151.66;5036354;28;20076;-79
2021/09/13 01:01:37;;;;;;;5.47;2.92;;;;;;;13.10;100.00;99132.56;5040596;28;20052;-80
2021/09/13 01:04:04;;;;;;;4.28;2.95;;;;;;;13.10;100.00;99142.66;5019691;28;20441;-80
2021/09/13 01:06:31;;;;;;;4.00;3.10;;;;;;;13.07;100.00;99127.50;5041361;28;23099;-79
2021/09/13 01:08:58;;;;;;;4.13;2.80;;;;;;;13.22;100.00;99143.75;5040517;28;20056;-79
2021/09/13 01:11:27;;;;;;;3.38;2.83;;;;;;;13.19;100.00;99133.25;5039831;28;20049;-80
2021/09/13 01:13:54;;;;;;;7.10;3.00;;;;;;;13.12;100.00;99139.72;5038479;28;20052;-81
2021/09/13 01:16:20;;;;;;;4.38;2.85;;;;;;;12.93;100.00;99136.66;5035132;28;20053;-79
2021/09/13 01:18:47;;;;;;;5.32;2.70;;;;;;;12.93;100.00;99142.13;5033052;28;20111;-81
2021/09/13 01:21:15;;;;;;;4.13;2.90;;;;;;;12.79;100.00;99118.53;5038927;28;20041;-80
2021/09/13 01:23:43;;;;;;;5.07;2.67;;;;;;;12.89;100.00;99117.13;5038590;28;20049;-80
2021/09/13 01:26:10;;;;;;;3.58;2.35;;;;;;;12.98;100.00;99126.00;5044142;28;20094;-80
2021/09/13 01:28:37;;;;;;;3.13;2.83;;;;;;;13.07;100.00;99124.78;5052349;28;20057;-80
2021/09/13 01:31:04;;;;;;;4.85;2.63;;;;;;;12.84;100.00;99125.09;5051765;28;20132;-80
2021/09/13 01:33:30;;;;;;;4.68;2.70;;;;;;;12.70;100.00;99143.22;5038080;28;20508;-80
2021/09/13 01:35:57;;;;;;;3.80;2.63;;;;;;;12.65;100.00;99142.16;5035288;28;20045;-80
2021/09/13 01:38:26;;;;;;;3.95;2.78;;;;;;;12.62;100.00;99148.00;5032587;28;20049;-79
2021/09/13 01:40:55;;;;;;;3.88;2.63;;;;;;;12.83;100.00;99152.56;5032923;28;20448;-80
2021/09/13 01:43:22;;;;;;;2.67;2.28;;;;;;;12.92;100.00;99140.44;5038553;28;20103;-80
2021/09/13 01:45:48;;;;;;;3.67;2.50;;;;;;;12.71;100.00;99135.91;5043391;28;20045;-80
2021/09/13 01:48:15;;;;;;;4.13;2.78;;;;;;;12.65;100.00;99120.34;5051992;28;20485;-79
2021/09/13 01:50:42;;;;;;;4.18;2.20;;;;;;;12.82;100.00;99145.41;5051258;28;20056;-80
2021/09/13 01:53:09;;;;;;;3.70;2.60;;;;;;;12.50;100.00;99139.53;5051961;28;20328;-80
2021/09/13 01:55:36;;;;;;;2.40;2.13;;;;;;;12.46;100.00;99141.78;5050375;28;20041;-80
2021/09/13 01:58:04;;;;;;;5.88;2.53;;;;;;;12.46;100.00;99143.69;5051965;28;20053;-79
2021/09/13 02:00:34;;;;;;;3.28;2.60;;;;;;;12.50;100.00;99131.34;5052156;28;20402;-79
2021/09/13 02:03:00;;;;;;;3.90;2.53;;;;;;;12.54;100.00;99140.81;5051608;28;20053;-79
2021/09/13 02:05:28;;;;;;;3.13;2.55;;;;;;;12.47;100.00;99127.13;5051582;28;20041;-79
2021/09/13 02:07:54;;;;;;;5.40;2.97;;;;;;;12.60;100.00;99109.16;5051891;28;20106;-80
2021/09/13 02:10:24;;;;;;;3.10;2.45;;;;;;;12.47;100.00;99116.22;5051611;28;20448;-79
2021/09/13 02:12:53;;;;;;;3.25;2.58;;;;;;;12.37;100.00;99115.72;5051825;28;20052;-79
2021/09/13 02:15:21;;;;;;;3.00;2.63;;;;;;;12.37;100.00;99108.41;5055487;28;20110;-80
2021/09/13 02:17:51;;;;;;;3.80;2.33;;;;;;;12.50;100.00;99121.28;5053157;28;20458;-80
2021/09/13 02:20:18;;;;;;;7.22;3.20;;;;;;;12.53;100.00;99115.44;5040000;28;20473;-79
2021/09/13 02:22:45;;;;;;;4.18;2.90;;;;;;;12.43;100.00;99116.81;5055113;28;20041;-79
2021/09/13 02:25:12;;;;;;;5.15;2.60;;;;;;;12.49;100.00;99105.94;5055429;28;20132;-79
2021/09/13 02:27:39;;;;;;;4.25;3.03;;;;;;;12.49;100.00;99105.13;5055405;28;20045;-80
2021/09/13 02:30:07;;;;;;;4.03;2.92;;;;;;;12.66;100.00;99130.19;5054704;28;20444;-79
2021/09/13 02:32:35;;;;;;;5.30;2.70;;;;;;;12.66;100.00;99105.66;5055413;28;20048;-80
2021/09/13 02:35:05;;;;;;;4.68;2.65;;;;;;;12.77;100.00;99128.78;5054347;28;20045;-79
2021/09/13 02:37:33;;;;;;;5.80;2.70;;;;;;;12.71;100.00;99116.81;5055263;28;20053;-80
2021/09/13 02:40:03;;;;;;;5.15;3.08;;;;;;;12.74;100.00;99127.31;5045641;28;20057;-80
2021/09/13 02:42:30;;;;;;;5.60;2.70;;;;;;;12.60;100.00;99126.41;5045396;28;20049;-80
2021/09/13 02:44:57;;;;;;;5.68;2.80;;;;;;;12.30;100.00;99118.41;5043134;28;20048;-79
2021/09/13 02:47:29;;;;;;;7.40;2.97;;;;;;;12.38;100.00;99133.78;5039765;28;20045;-80
2021/09/13 02:50:06;;;;;;;4.43;2.90;;;;;;;12.44;100.00;99123.97;5036851;28;20048;-79
2021/09/13 02:52:33;;;;;;;3.65;2.67;;;;;;;12.52;100.00;99121.09;5043231;28;20056;-80
2021/09/13 02:55:00;;;;;;;4.20;3.15;;;;;;;12.50;100.00;99112.28;5052540;28;20508;-80
2021/09/13 02:57:27;;;;;;;5.45;2.85;;;;;;;12.48;100.00;99112.47;5055326;28;20064;-80
2021/09/13 02:59:54;;;;;;;4.13;3.08;;;;;;;12.43;100.00;99106.75;5046385;28;20049;-80
2021/09/13 03:02:23;;;;;;;2.95;2.55;;;;;;;12.53;100.00;99106.41;5041757;28;20041;-80
2021/09/13 03:04:52;;;;;;;3.85;2.58;;;;;;;12.60;100.00;99106.44;5033113;28;20527;-80
2021/09/13 03:07:20;;;;;;;4.38;3.05;;;;;;;12.71;100.00;99114.09;5031987;28;23139;-80
2021/09/13 03:09:47;;;;;;;8.05;2.90;;;;;;;12.64;100.00;99089.47;5034222;28;20059;-80
2021/09/13 03:12:14;;;;;;;4.55;3.10;;;;;;;12.69;100.00;99092.47;5035031;28;22790;-81
2021/09/13 03:14:41;;;;;;;5.75;3.33;;;;;;;12.70;100.00;99088.69;5042857;28;20442;-80
2021/09/13 03:17:08;;;;;;;5.10;2.85;;;;;;;12.75;100.00;99101.72;5034411;28;20053;-80
2021/09/13 03:19:35;;;;;;;4.63;2.55;;;;;;;12.63;100.00;99087.81;5036317;28;20129;-79
2021/09/13 03:22:02;;;;;;;5.38;3.10;;;;;;;12.75;100.00;99113.47;5048643;28;20056;-80
2021/09/13 03:24:30;;;;;;;7.80;3.00;;;;;;;12.71;100.00;99103.19;5053747;28;20071;-80
2021/09/13 03:26:56;;;;;;;6.97;3.70;;;;;;;12.65;100.00;99113.00;5045373;28;20046;-80
2021/09/13 03:29:23;;;;;;;7.38;3.13;;;;;;;12.60;100.00;99104.59;5038461;28;20052;-80
2021/09/13 03:31:50;;;;;;;6.32;3.20;;;;;;;12.76;100.00;99117.03;5053967;28;20451;-80
2021/09/13 03:34:17;;;;;;;5.78;2.80;;;;;;;12.65;100.00;99101.25;5049794;28;20444;-80
2021/09/13 03:36:43;;;;;;;4.38;2.92;;;;;;;12.58;100.00;99114.81;5043892;28;20041;-80
2021/09/13 03:39:10;;;;;;;6.78;3.22;;;;;;;12.42;100.00;99106.94;5054233;28;20048;-80
2021/09/13 03:41:38;;;;;;;3.72;3.08;;;;;;;12.46;100.00;99108.25;5052805;28;20049;-80
2021/09/13 03:44:05;;;;;;;3.92;3.10;;;;;;;12.53;100.00;99125.50;5043577;28;20053;-80
2021/09/13 03:46:32;;;;;;;5.30;3.28;;;;;;;12.38;100.00;99099.16;5052771;28;20446;-80
2021/09/13 03:48:59;;;;;;;4.55;2.92;;;;;;;12.50;100.00;99115.00;5054136;28;20049;-80
2021/09/13 03:51:26;;;;;;;3.15;2.70;;;;;;;12.59;100.00;99118.41;5053602;28;20102;-80
2021/09/13 03:53:53;;;;;;;3.40;2.67;;;;;;;12.45;100.00;99115.59;5054046;28;20048;-80
2021/09/13 03:56:19;;;;;;;3.50;2.90;;;;;;;12.30;100.00;99117.53;5053862;28;20049;-80
2021/09/13 03:58:47;;;;;;;3.70;2.60;;;;;;;12.23;100.00;99122.97;5053754;28;20052;-80
2021/09/13 04:01:14;;;;;;;6.32;2.92;;;;;;;12.32;100.00;99115.47;5043755;28;20049;-80
2021/09/13 04:03:45;;;;;;;3.22;2.75;;;;;;;12.28;100.00;99106.00;5045172;28;20060;-80
2021/09/13 04:06:19;;;;;;;6.43;3.55;;;;;;;12.41;100.00;99117.03;5053375;28;20147;-80
2021/09/13 04:09:06;;;;;;;6.22;2.88;;;;;;;12.20;100.00;99113.28;5053790;28;20405;-80
2021/09/13 04:11:46;;;;;;;6.45;3.30;;;;;;;12.09;100.00;99104.78;5039047;28;20057;-80
2021/09/13 04:14:14;;;;;;;5.45;3.38;;;;;;;12.17;100.00;99110.94;5038120;28;20052;-80
2021/09/13 04:16:42;;;;;;;8.13;3.10;;;;;;;12.06;100.00;99097.00;5038263;28;20053;-80
2021/09/13 04:19:09;;;;;;;4.57;2.83;;;;;;;12.02;100.00;99100.13;5036601;28;20049;-80
2021/09/13 04:21:36;;;;;;;6.10;3.30;;;;;;;12.13;100.00;99112.38;5037947;28;20041;-80
2021/09/13 04:24:03;;;;;;;4.75;3.35;;;;;;;12.09;100.00;99094.75;5040477;28;20049;-80
2021/09/13 04:26:29;;;;;;;7.00;3.38;;;;;;;12.15;100.00;99106.72;5039937;28;20394;-79
2021/09/13 04:28:57;;;;;;;4.80;3.50;;;;;;;12.36;100.00;99106.72;5033197;28;20049;-79
2021/09/13 04:31:27;;;;;;;10.23;3.25;;;;;;;12.34;100.00;99108.78;5039492;28;20040;-80
2021/09/13 04:33:54;;;;;;;4.88;2.97;;;;;;;12.13;100.00;99101.47;5034894;28;20057;-80
2021/09/13 04:36:24;;;;;;;5.97;3.70;;;;;;;12.25;100.00;99115.41;5037208;28;20040;-80
2021/09/13 04:38:51;;;;;;;5.07;3.13;;;;;;;12.09;100.00;99085.72;5052152;28;20114;-80
2021/09/13 04:41:18;;;;;;;3.45;2.97;;;;;;;12.07;100.00;99102.25;5051958;28;20516;-79
2021/09/13 04:43:45;;;;;;;6.65;2.83;;;;;;;12.19;100.00;99099.84;5052522;28;20398;-79
2021/09/13 04:46:11;;;;;;;4.80;3.33;;;;;;;12.13;100.00;99093.31;5052511;28;20045;-79
2021/09/13 04:48:40;;;;;;;5.07;2.92;;;;;;;12.03;100.00;99093.66;5048600;28;20489;-80
2021/09/13 04:51:07;;;;;;;3.95;3.10;;;;;;;11.99;100.00;99088.78;5036864;28;20045;-79
2021/09/13 04:53:33;;;;;;;4.65;3.10;;;;;;;12.09;100.00;99102.94;5037809;28;20041;-80
2021/09/13 04:56:00;;;;;;;5.38;3.47;;;;;;;12.17;100.00;99096.50;5037164;28;20526;-79
2021/09/13 04:58:27;;;;;;;4.68;3.42;;;;;;;12.32;100.00;99110.03;5033459;28;20046;-80
2021/09/13 05:00:54;;;;;;;4.25;3.20;;;;;;;12.20;100.00;99107.00;5034150;28;20095;-80
2021/09/13 05:03:20;;;;;;;9.98;3.30;;;;;;;12.15;100.00;99106.72;5032733;28;20053;-80
2021/09/13 05:05:49;;;;;;;3.90;2.72;;;;;;;12.20;100.00;99107.00;5048342;28;20151;-81
2021/09/13 05:08:15;;;;;;;5.82;3.05;;;;;;;12.18;100.00;99109.91;5038873;28;20049;-80
2021/09/13 05:10:42;;;;;;;4.10;3.50;;;;;;;12.34;100.00;99127.03;5043060;28;20056;-79
2021/09/13 05:13:09;;;;;;;5.70;3.42;;;;;;;12.29;100.00;99100.34;5052331;28;20090;-80
2021/09/13 05:15:36;;;;;;;3.65;3.17;;;;;;;12.41;100.00;99113.47;5049459;28;20072;-80
2021/09/13 05:18:03;;;;;;;6.05;3.47;;;;;;;12.45;100.00;99104.69;5037898;28;20049;-80
2021/09/13 05:20:30;;;;;;;6.18;3.60;;;;;;;12.49;100.00;99110.56;5038180;28;20064;-80
2021/09/13 05:22:58;;;;;;;4.78;3.50;;;;;;;12.36;100.00;99100.41;5038384;28;20056;-80
2021/09/13 05:25:25;;;;;;;10.43;5.13;;;;;;;12.36;100.00;99109.44;5039273;28;20045;-80
2021/09/13 05:27:51;;;;;;;3.92;3.10;;;;;;;12.47;100.00;99108.03;5042742;28;20048;-80
2021/09/13 05:30:18;;;;;;;4.38;3.33;;;;;;;12.44;100.00;99094.81;5039695;28;20060;-80
2021/09/13 05:32:45;;;;;;;4.55;3.78;;;;;;;12.52;100.00;99089.19;5051766;28;20079;-80
2021/09/13 05:35:12;;;;;;;5.05;3.60;;;;;;;12.73;100.00;99115.56;5050763;28;20084;-80
2021/09/13 05:37:39;;;;;;;4.45;3.40;;;;;;;12.65;100.00;99102.09;5044577;28;20739;-80
2021/09/13 05:40:09;;;;;;;5.45;3.53;;;;;;;12.63;100.00;99119.69;5050271;28;20057;-80
2021/09/13 05:42:36;;;;;;;4.88;3.28;;;;;;;12.52;100.00;99111.00;5052319;28;20049;-80
2021/09/13 05:45:04;;;;;;;4.38;3.47;;;;;;;12.77;100.00;99129.66;5051245;28;20048;-80
2021/09/13 05:47:31;;;;;;;4.90;3.38;;;;;;;12.89;100.00;99129.94;5052036;28;20455;-80
2021/09/13 05:49:59;;;;;;;4.97;4.00;;;;;;;12.88;100.00;99111.88;5051802;28;20052;-80
2021/09/13 05:52:26;;;;;;;8.07;4.22;;;;;;;13.00;100.00;99131.25;5052030;28;20048;-80
2021/09/13 05:54:54;;;;;;;4.13;3.33;;;;;;;12.97;100.00;99126.19;5043685;28;20049;-80
2021/09/13 05:57:38;;;;;;;8.38;4.35;;;;;;;13.07;100.00;99122.06;5033335;28;20051;-80
2021/09/13 06:00:09;;;;;;;5.32;3.70;;;;;;;13.02;100.00;99110.06;5017422;28;20050;-80
2021/09/13 06:02:39;;;;;;;4.85;3.38;;;;;;;13.13;100.00;99114.94;5032040;28;20083;-81
2021/09/13 06:05:10;;;;;;;4.82;3.35;;;;;;;13.28;100.00;99123.00;5031527;28;20046;-80
2021/09/13 06:07:39;;;;;;;10.13;3.72;;;;;;;13.25;100.00;99109.75;5032414;28;20387;-80
2021/09/13 06:10:18;;;;;;;7.40;3.92;;;;;;;13.38;100.00;99125.38;5031921;28;20049;-80
2021/09/13 06:12:48;;;;;;;7.00;3.30;;;;;;;13.36;100.00;99133.75;5033149;28;20053;-80
2021/09/13 06:15:15;;;;;;;7.10;3.50;;;;;;;13.41;100.00;99133.16;5031526;28;20057;-80
2021/09/13 06:17:42;;;;;;;5.28;4.13;;;;;;;13.33;100.00;99116.94;5048348;28;20053;-80
2021/09/13 06:20:16;;;;;;;10.05;3.70;;;;;;;13.45;100.00;99134.44;5051772;28;20048;-80
2021/09/13 06:22:45;;;;;;;4.10;3.50;;;;;;;13.52;100.00;99126.25;5051236;28;20448;-80
2021/09/13 06:25:12;;;;;;;4.65;3.70;;;;;;;13.66;100.00;99138.91;5051151;28;20040;-81
2021/09/13 06:27:47;;;;;;;4.32;3.88;;;;;;;13.65;100.00;99130.91;5045808;28;20048;-80
2021/09/13 06:30:25;;;;;;;7.18;3.53;;;;;;;13.74;100.00;99130.50;5037210;28;20053;-80
2021/09/13 06:32:52;;;;;;;5.97;3.63;;;;;;;13.76;100.00;99131.16;5024521;28;20056;-80
2021/09/13 06:35:37;;;;;;;;;;;;;;;;;;;;;
2021/09/13 06:38:11;;;;;;;8.65;4.07;;;;;;;13.85;100.00;99125.50;5036828;28;20053;-80
2021/09/13 06:40:41;;;;;;;5.80;3.35;;;;;;;13.88;100.00;99122.34;5030800;28;20056;-80
2021/09/13 06:43:14;;;;;;;5.25;4.15;;;;;;;13.94;100.00;99133.31;5031661;28;20077;-80
2021/09/13 06:45:46;;;;;;;10.52;3.50;;;;;;;13.95;100.00;99134.97;5035019;28;20040;-80
2021/09/13 06:48:20;;;;;;;6.43;3.85;;;;;;;14.04;100.00;99137.53;5037456;28;20757;-81
2021/09/13 06:51:12;;;;;;;5.47;3.47;;;;;;;14.02;100.00;99118.59;5038942;28;20056;-80
2021/09/13 06:53:39;;;;;;;4.05;3.65;;;;;;;13.99;100.00;99124.47;5044096;28;20061;-80
2021/09/13 06:56:06;;;;;;;12.63;3.53;;;;;;;14.15;100.00;99125.97;5050819;28;20048;-80
2021/09/13 06:58:35;;;;;;;4.20;3.38;;;;;;;14.23;100.00;99128.50;5044255;28;20489;-80
2021/09/13 07:01:04;;;;;;;4.57;3.88;;;;;;;14.31;100.00;99130.19;5037289;28;20048;-81
2021/09/13 07:03:31;;;;;;;6.60;4.13;;;;;;;14.77;100.00;99137.56;5035017;28;20050;-80
2021/09/13 07:06:04;;;;;;;7.68;4.13;;;;;;;15.20;96.99;99131.56;5039485;28;20505;-80
2021/09/13 07:08:32;;;;;;;10.43;3.78;;;;;;;15.56;94.75;99130.13;5049592;28;20124;-81
2021/09/13 07:11:01;;;;;;;6.65;3.05;;;;;;;15.95;93.75;99137.56;5037642;28;20053;-81
2021/09/13 07:16:35;;;;;;;3.47;2.83;;;;;;;16.18;92.63;99134.22;5024984;28;20114;-80
2021/09/13 07:19:09;;;;;;;6.43;3.20;;;;;;;16.23;91.07;99142.63;5054863;28;20300;-80
2021/09/13 07:21:35;;;;;;;5.60;3.05;;;;;;;15.99;90.98;99142.38;5054540;28;20052;-80
2021/09/13 07:24:07;;;;;;;9.13;3.53;;;;;;;16.32;90.93;99154.16;5035662;28;20049;-81
2021/09/13 07:26:36;;;;;;;13.98;5.07;;;;;;;16.09;90.48;99147.34;5041860;28;20217;-81
2021/09/13 07:29:27;;;;;;;7.60;3.55;;;;;;;16.10;90.48;99144.38;5038902;28;20410;-81
2021/09/13 07:32:10;;;;;;;4.68;3.63;;;;;;;16.34;89.82;99144.66;5012270;28;20053;-81
2021/09/13 07:34:37;;;;;;;5.55;3.28;;;;;;;16.66;88.75;99157.47;5038471;28;20150;-81
2021/09/13 07:37:10;;;;;;;13.27;3.70;;;;;;;16.83;88.29;99146.75;5053711;28;20049;-81
2021/09/13 07:39:37;;;;;;;8.25;3.33;;;;;;;17.03;87.21;99155.66;5042513;28;20055;-81
2021/09/13 07:42:04;;;;;;;7.15;3.28;;;;;;;17.17;86.61;99159.94;5037642;28;20051;-81
2021/09/13 07:44:41;;;;;;;7.05;3.22;;;;;;;17.43;86.12;99157.13;5035901;28;20056;-81
2021/09/13 07:47:08;;;;;;;5.13;2.78;;;;;;;17.38;84.71;99146.81;5034836;28;20126;-83
2021/09/13 07:49:53;;;;;;;6.97;3.22;;;;;;;17.54;82.83;99156.38;5037001;28;20051;-81
2021/09/13 07:52:20;;;;;;;4.50;3.03;;;;;;;17.76;83.39;99166.84;5040710;28;20048;-81
2021/09/13 07:55:10;;;;;;;3.20;2.63;;;;;;;17.75;81.71;99152.28;5037876;28;20052;-80
2021/09/13 07:57:44;;;;;;;3.17;2.63;;;;;;;17.67;83.28;99141.59;5024988;28;20072;-80
2021/09/13 08:03:20;;;;;;;11.73;2.88;;;;;;;17.48;85.19;99144.38;5049447;28;20057;-80
2021/09/13 08:06:16;;;;;;;8.90;2.60;;;;;;;17.69;83.57;99177.97;5052248;28;20464;-80
2021/09/13 08:09:00;;;;;;;4.30;2.78;;;;;;;17.76;83.40;99153.94;5045297;28;20048;-80
2021/09/13 08:11:40;;;;;;;3.00;2.50;;;;;;;18.07;83.40;99190.59;5053782;28;20049;-80
2021/09/13 08:17:23;;;;;;;6.13;2.30;;;;;;;18.11;82.03;99166.19;5048951;28;20045;-80
2021/09/13 08:23:01;;;;;;;4.53;2.80;;;;;;;18.02;84.05;99187.69;4968763;28;20061;-80
2021/09/13 08:25:32;;;;;;;3.83;2.13;;;;;;;18.10;84.40;99175.53;5035468;28;20418;-80
2021/09/13 08:28:02;;;;;;;5.32;2.40;;;;;;;18.27;82.47;99187.53;5037404;28;20049;-80
2021/09/13 08:30:31;;;;;;;6.35;2.67;;;;;;;18.45;81.55;99183.03;5042380;28;20425;-80
2021/09/13 08:32:58;;;;;;;8.52;2.78;;;;;;;18.55;81.03;99175.88;5053114;28;20083;-80
2021/09/13 08:35:26;;;;;;;3.10;2.55;;;;;;;18.60;79.76;99179.84;5050755;28;20076;-80
2021/09/13 08:37:52;;;;;;;4.32;2.83;;;;;;;18.76;80.52;99184.66;5053440;28;20052;-80
2021/09/13 08:40:21;;;;;;;3.25;2.60;;;;;;;18.60;81.02;99175.16;5053247;28;20099;-81
2021/09/13 08:42:49;;;;;;;4.32;2.70;;;;;;;18.62;80.88;99170.25;5050136;28;20052;-80
2021/09/13 08:45:24;;;;;;;5.38;2.33;;;;;;;18.74;80.70;99178.53;5038110;28;20132;-80
2021/09/13 08:48:00;;;;;;;3.58;2.55;;;;;;;18.63;81.08;99177.44;5050966;28;20099;-80
2021/09/13 08:50:35;;;;;;;3.00;2.50;;;;;;;18.66;81.97;99162.38;5033007;28;20053;-80
2021/09/13 08:53:02;;;;;;;4.82;2.72;;;;;;;18.85;81.56;99165.84;5033368;28;20053;-80
2021/09/13 08:55:30;;;;;;;4.88;2.28;;;;;;;18.94;80.01;99164.44;5037116;28;20057;-80
2021/09/13 08:57:59;;;;;;;4.00;2.33;;;;;;;19.15;80.00;99185.03;5038813;28;20087;-81
2021/09/13 09:00:26;;;;;;;3.42;2.30;;;;;;;19.18;79.73;99187.31;5041875;28;20044;-80
2021/09/13 09:02:55;;;;;;;3.38;2.20;;;;;;;19.19;79.47;99171.63;5033485;28;20102;-81
2021/09/13 09:05:22;;;;;;;8.43;2.50;;;;;;;19.34;78.93;99166.44;5050415;28;20556;-81
2021/09/13 09:07:50;;;;;;;3.33;2.50;;;;;;;19.41;78.44;99175.41;5052736;28;20080;-81
2021/09/13 09:10:25;;;;;;;4.68;2.75;;;;;;;19.48;77.50;99166.16;5048761;28;20052;-81
2021/09/13 09:12:58;;;;;;;3.17;2.50;;;;;;;19.71;77.14;99176.31;5016442;28;20080;-81
2021/09/13 09:15:25;;;;;;;4.65;2.85;;;;;;;19.68;76.57;99177.63;5036994;28;20045;-81
2021/09/13 09:17:55;;;;;;;3.90;2.28;;;;;;;19.75;77.51;99166.44;5037368;28;20486;-81
2021/09/13 09:20:22;;;;;;;9.98;2.55;;;;;;;19.96;75.98;99171.34;5032673;28;20248;-82
2021/09/13 09:23:00;;;;;;;7.35;2.47;;;;;;;19.92;75.08;99170.16;5046505;28;20485;-83
2021/09/13 09:25:29;;;;;;;4.95;2.38;;;;;;;19.95;75.42;99168.81;5045656;28;20123;-81
2021/09/13 09:27:59;;;;;;;3.25;1.75;;;;;;;20.11;74.66;99178.22;5040461;28;20124;-82
2021/09/13 09:30:35;;;;;;;6.43;2.72;;;;;;;20.24;74.71;99172.38;5050079;28;20484;-82
2021/09/13 09:33:06;;;;;;;6.97;2.30;;;;;;;20.33;74.03;99181.09;5051592;28;20049;-82
2021/09/13 09:35:44;;;;;;;10.23;3.13;;;;;;;20.32;73.22;99163.72;5051420;28;20064;-82
2021/09/13 09:38:27;;;;;;;4.82;2.17;;;;;;;20.38;73.74;99166.56;5051460;28;20942;-81
2021/09/13 09:40:59;;;;;;;5.95;2.28;;;;;;;20.36;71.94;99164.03;5051880;28;20064;-82
2021/09/13 09:43:55;;;;;;;8.70;2.30;;;;;;;20.37;72.37;99157.44;5045736;28;20048;-82
2021/09/13 09:46:23;;;;;;;2.20;1.90;;;;;;;20.48;71.88;99172.25;5031881;28;20057;-82
2021/09/13 09:48:50;;;;;;;4.70;2.22;;;;;;;20.44;71.71;99173.84;5032159;28;20046;-82
2021/09/13 09:51:27;;;;;;;11.27;2.28;;;;;;;20.62;71.85;99161.72;5046966;28;20048;-82
2021/09/13 09:53:55;;;;;;;5.10;2.65;;;;;;;20.62;69.40;99168.06;5052040;28;20110;-82
2021/09/13 09:56:25;;;;;;;10.95;2.28;;;;;;;20.73;70.46;99160.84;5051376;28;20053;-82
2021/09/13 09:58:58;;;;;;;;;;;;;;;20.84;71.19;99168.19;5052348;28;20045;-82
2021/09/13 10:01:39;;;;;;;7.72;2.17;;;;;;;20.78;69.32;99160.91;5051142;28;19932;-82
2021/09/13 10:04:14;;;;;;;4.72;1.95;;;;;;;20.91;69.67;99153.34;5031658;28;20053;-83
2021/09/13 10:06:42;;;;;;;10.15;2.50;;;;;;;20.95;68.51;99165.59;5043212;28;20045;-83
2021/09/13 10:09:10;;;;;;;7.10;2.28;;;;;;;21.08;67.99;99162.47;5051861;28;20084;-82
2021/09/13 10:11:39;;;;;;;2.42;2.08;;;;;;;21.17;67.29;99149.88;5051940;28;20489;-82
2021/09/13 10:14:28;;;;;;;5.15;2.17;;;;;;;21.45;68.21;99153.56;5051875;28;20053;-82
2021/09/13 10:16:55;;;;;;;7.50;2.47;;;;;;;21.55;69.12;99150.13;5052882;28;20055;-82
2021/09/13 10:19:24;;;;;;;8.65;2.47;;;;;;;21.71;70.55;99152.00;5051169;28;20291;-82
2021/09/13 10:21:52;;;;;;;7.10;1.95;;;;;;;21.67;66.95;99144.47;5053045;28;20049;-82
2021/09/13 10:24:23;;;;;;;3.65;2.33;;;;;;;21.76;66.77;99151.22;5052909;28;20045;-81
2021/09/13 10:26:53;;;;;;;4.53;2.03;;;;;;;21.67;65.83;99130.63;5052533;28;20041;-82
2021/09/13 10:29:23;;;;;;;1.77;1.67;;;;;;;21.95;64.30;99145.31;5050686;28;20055;-82
2021/09/13 10:32:03;;;;;;;3.55;2.33;;;;;;;21.89;65.55;99125.91;5051458;28;20048;-81
2021/09/13 10:34:34;;;;;;;4.22;2.00;;;;;;;22.03;66.29;99115.25;5052482;28;20049;-81
2021/09/13 10:37:09;;;;;;;5.93;2.13;;;;;;;21.93;66.47;99117.91;5048734;28;20049;-82
2021/09/13 10:40:09;;;;;;;4.32;2.25;;;;;;;22.08;65.60;99123.59;5040283;28;20080;-82
2021/09/13 10:42:42;;;;;;;4.20;2.00;;;;;;;21.98;65.14;99106.06;5055510;28;20410;-82
2021/09/13 10:45:41;;;;;;;2.10;1.67;;;;;;;22.06;64.18;99100.06;5051670;28;20059;-81
2021/09/13 10:48:11;;;;;;;6.90;2.20;;;;;;;22.02;63.53;99118.28;5055632;28;20052;-82
2021/09/13 10:50:41;;;;;;;5.38;1.90;;;;;;;22.06;63.83;99119.44;5054865;28;20052;-81
2021/09/13 10:53:27;;;;;;;;;;;;;;;22.14;64.06;99118.13;5055194;28;20405;-81
2021/09/13 10:55:56;;;;;;;8.55;2.50;;;;;;;22.27;62.97;99121.28;5054407;28;19920;-82
2021/09/13 10:58:37;;;;;;;2.72;1.92;;;;;;;22.21;63.50;99119.56;5055040;28;20088;-82
2021/09/13 11:01:06;;;;;;;3.70;2.28;;;;;;;22.36;63.51;99115.31;5054914;28;20088;-81
2021/09/13 11:03:40;;;;;;;3.47;2.08;;;;;;;22.48;63.43;99104.88;5055264;28;20057;-82
2021/09/13 11:06:40;;;;;;;3.22;2.20;;;;;;;22.75;63.66;99115.91;5054403;28;20519;-81
2021/09/13 11:09:10;;;;;;;4.28;2.08;;;;;;;22.85;63.85;99105.97;5034878;28;20060;-82
2021/09/13 11:11:41;;;;;;;6.32;2.22;;;;;;;23.01;61.99;99113.28;5054697;28;20044;-82
2021/09/13 11:14:10;;;;;;;5.05;1.90;;;;;;;23.06;62.09;99077.25;5054955;28;20098;-82
2021/09/13 11:16:38;;;;;;;2.55;1.90;;;;;;;23.01;61.83;99095.81;5054573;28;20048;-82
2021/09/13 11:19:10;;;;;;;6.18;2.33;;;;;;;23.23;61.86;99088.22;5054479;28;20110;-82
2021/09/13 11:21:42;;;;;;;3.35;2.25;;;;;;;23.48;62.62;99093.00;5054855;28;20084;-82
2021/09/13 11:24:11;;;;;;;2.55;1.75;;;;;;;23.45;56.94;99065.00;5054133;28;20053;-82
2021/09/13 11:26:40;;;;;;;5.18;2.20;;;;;;;23.61;56.21;99063.09;5045755;28;20053;-82
2021/09/13 11:29:09;;;;;;;3.00;2.00;;;;;;;23.83;55.88;99083.13;5035452;28;20057;-82
2021/09/13 11:31:39;;;;;;;3.83;2.10;;;;;;;23.78;56.56;99062.88;5054465;28;20555;-82
2021/09/13 11:34:21;;;;;;;9.35;2.33;;;;;;;23.78;55.22;99068.41;5054316;28;20574;-82
2021/09/13 11:36:52;;;;;;;2.90;2.30;;;;;;;23.81;55.71;99060.34;5053095;28;20562;-82
2021/09/13 11:39:20;;;;;;;3.08;2.38;;;;;;;24.10;54.06;99062.63;5054298;28;20045;-82
2021/09/13 11:41:54;;;;;;;2.42;1.90;;;;;;;24.20;54.96;99059.88;5053890;28;20045;-82
2021/09/13 11:44:21;;;;;;;2.63;2.03;;;;;;;24.24;53.68;99054.63;5053278;28;20118;-82
2021/09/13 11:46:53;;;;;;;4.80;2.20;;;;;;;24.37;54.00;99058.75;5053419;28;20041;-82
2021/09/13 11:49:27;;;;;;;2.28;1.92;;;;;;;24.66;54.20;99050.72;5053937;28;20099;-82
2021/09/13 11:52:03;;;;;;;4.82;2.50;;;;;;;24.76;53.52;99049.03;5053978;28;20185;-81
2021/09/13 11:54:31;;;;;;;2.50;1.95;;;;;;;24.93;52.19;99069.00;5053768;28;20064;-82
2021/09/13 11:56:58;;;;;;;3.10;2.17;;;;;;;25.18;52.19;99070.84;5053837;28;20060;-81